sensor_id;sensor_type;location;lat;lon;timestamp;P1;durP1;ratioP1;P2;durP2;ratioP2
69981;SDS011;57319;56.274;43.980;2022-09-13T00:00:48;4.78;;;3.65;;
69981;SDS011;57319;56.274;43.980;2022-09-13T00:03:16;7.13;;;3.95;;
69981;SDS011;57319;56.274;43.980;2022-09-13T00:05:41;3.85;;;3.55;;
69981;SDS011;57319;56.274;43.980;2022-09-13T00:08:07;6.05;;;3.67;;
69981;SDS011;57319;56.274;43.980;2022-09-13T00:10:34;3.40;;;3.30;;
69981;SDS011;57319;56.274;43.980;2022-09-13T00:13:02;7.40;;;4.22;;
69981;SDS011;57319;56.274;43.980;2022-09-13T00:15:28;5.45;;;3.83;;
69981;SDS011;57319;56.274;43.980;2022-09-13T00:17:54;4.80;;;4.40;;
69981;SDS011;57319;56.274;43.980;2022-09-13T00:20:20;5.82;;;4.68;;
69981;SDS011;57319;56.274;43.980;2022-09-13T00:22:46;4.68;;;4.38;;
69981;SDS011;57319;56.274;43.980;2022-09-13T00:25:11;4.70;;;4.32;;
69981;SDS011;57319;56.274;43.980;2022-09-13T00:27:37;6.05;;;4.55;;
69981;SDS011;57319;56.274;43.980;2022-09-13T00:30:03;5.63;;;4.45;;
69981;SDS011;57319;56.274;43.980;2022-09-13T00:32:30;5.40;;;4.70;;
69981;SDS011;57319;56.274;43.980;2022-09-13T00:34:56;4.35;;;4.07;;
69981;SDS011;57319;56.274;43.980;2022-09-13T00:37:22;13.45;;;3.88;;
69981;SDS011;57319;56.274;43.980;2022-09-13T00:39:47;10.13;;;3.90;;
69981;SDS011;57319;56.274;43.980;2022-09-13T00:42:13;4.45;;;4.15;;
69981;SDS011;57319;56.274;43.980;2022-09-13T00:44:51;4.85;;;4.15;;
69981;SDS011;57319;56.274;43.980;2022-09-13T00:49:53;4.47;;;4.05;;
69981;SDS011;57319;56.274;43.980;2022-09-13T00:52:29;5.70;;;3.85;;
69981;SDS011;57319;56.274;43.980;2022-09-13T00:54:59;4.28;;;4.05;;
69981;SDS011;57319;56.274;43.980;2022-09-13T00:57:29;4.60;;;4.00;;
69981;SDS011;57319;56.274;43.980;2022-09-13T01:00:02;3.97;;;3.70;;
69981;SDS011;57319;56.274;43.980;2022-09-13T01:02:37;4.72;;;4.18;;
69981;SDS011;57319;56.274;43.980;2022-09-13T01:05:25;6.03;;;4.10;;
69981;SDS011;57319;56.274;43.980;2022-09-13T01:07:54;8.75;;;4.40;;
69981;SDS011;57319;56.274;43.980;2022-09-13T01:10:21;5.28;;;4.68;;
69981;SDS011;57319;56.274;43.980;2022-09-13T01:15:35;5.25;;;4.85;;
69981;SDS011;57319;56.274;43.980;2022-09-13T01:18:01;5.00;;;4.45;;
69981;SDS011;57319;56.274;43.980;2022-09-13T01:20:31;4.63;;;4.32;;
69981;SDS011;57319;56.274;43.980;2022-09-13T01:31:29;4.70;;;3.80;;
69981;SDS011;57319;56.274;43.980;2022-09-13T01:39:22;4.65;;;3.97;;
69981;SDS011;57319;56.274;43.980;2022-09-13T01:42:56;4.85;;;4.55;;
69981;SDS011;57319;56.274;43.980;2022-09-13T01:44:58;5.40;;;5.03;;
69981;SDS011;57319;56.274;43.980;2022-09-13T01:48:01;10.27;;;5.25;;
69981;SDS011;57319;56.274;43.980;2022-09-13T01:53:42;4.68;;;4.28;;
69981;SDS011;57319;56.274;43.980;2022-09-13T01:58:53;8.73;;;4.85;;
69981;SDS011;57319;56.274;43.980;2022-09-13T02:03:58;9.45;;;4.60;;
69981;SDS011;57319;56.274;43.980;2022-09-13T02:06:42;6.22;;;4.53;;
69981;SDS011;57319;56.274;43.980;2022-09-13T02:09:29;4.65;;;4.25;;
69981;SDS011;57319;56.274;43.980;2022-09-13T02:12:06;4.85;;;4.13;;
69981;SDS011;57319;56.274;43.980;2022-09-13T02:14:39;5.10;;;4.60;;
69981;SDS011;57319;56.274;43.980;2022-09-13T02:17:09;4.95;;;4.55;;
69981;SDS011;57319;56.274;43.980;2022-09-13T02:19:40;11.52;;;4.60;;
69981;SDS011;57319;56.274;43.980;2022-09-13T02:22:14;4.55;;;4.18;;
69981;SDS011;57319;56.274;43.980;2022-09-13T02:24:43;5.68;;;4.40;;
69981;SDS011;57319;56.274;43.980;2022-09-13T02:27:14;6.05;;;4.78;;
69981;SDS011;57319;56.274;43.980;2022-09-13T02:29:44;5.30;;;4.90;;
69981;SDS011;57319;56.274;43.980;2022-09-13T02:34:53;5.68;;;4.38;;
69981;SDS011;57319;56.274;43.980;2022-09-13T02:37:23;4.30;;;4.10;;
69981;SDS011;57319;56.274;43.980;2022-09-13T02:39:54;5.30;;;4.75;;
69981;SDS011;57319;56.274;43.980;2022-09-13T02:42:28;4.53;;;4.13;;
69981;SDS011;57319;56.274;43.980;2022-09-13T02:45:00;4.43;;;4.03;;
69981;SDS011;57319;56.274;43.980;2022-09-13T03:01:32;4.75;;;4.35;;
69981;SDS011;57319;56.274;43.980;2022-09-13T03:04:00;7.53;;;4.47;;
69981;SDS011;57319;56.274;43.980;2022-09-13T03:06:27;5.85;;;4.15;;
69981;SDS011;57319;56.274;43.980;2022-09-13T03:08:53;8.10;;;4.97;;
69981;SDS011;57319;56.274;43.980;2022-09-13T03:17:28;4.13;;;3.83;;
69981;SDS011;57319;56.274;43.980;2022-09-13T03:25:35;4.40;;;4.07;;
69981;SDS011;57319;56.274;43.980;2022-09-13T03:33:58;4.65;;;4.30;;
69981;SDS011;57319;56.274;43.980;2022-09-13T03:36:29;11.68;;;4.38;;
69981;SDS011;57319;56.274;43.980;2022-09-13T03:41:42;3.92;;;3.63;;
69981;SDS011;57319;56.274;43.980;2022-09-13T03:46:44;4.10;;;3.90;;
69981;SDS011;57319;56.274;43.980;2022-09-13T03:49:16;4.28;;;3.92;;
69981;SDS011;57319;56.274;43.980;2022-09-13T03:51:45;7.53;;;4.13;;
69981;SDS011;57319;56.274;43.980;2022-09-13T03:54:17;4.53;;;4.13;;
69981;SDS011;57319;56.274;43.980;2022-09-13T03:59:32;4.85;;;4.35;;
69981;SDS011;57319;56.274;43.980;2022-09-13T04:01:57;8.27;;;4.15;;
69981;SDS011;57319;56.274;43.980;2022-09-13T04:04:23;4.50;;;4.20;;
69981;SDS011;57319;56.274;43.980;2022-09-13T04:06:48;6.68;;;4.40;;
69981;SDS011;57319;56.274;43.980;2022-09-13T04:09:14;7.03;;;4.90;;
69981;SDS011;57319;56.274;43.980;2022-09-13T04:11:39;4.93;;;3.85;;
69981;SDS011;57319;56.274;43.980;2022-09-13T04:14:05;4.50;;;4.20;;
69981;SDS011;57319;56.274;43.980;2022-09-13T04:16:31;5.15;;;4.65;;
69981;SDS011;57319;56.274;43.980;2022-09-13T04:18:56;6.20;;;4.35;;
69981;SDS011;57319;56.274;43.980;2022-09-13T04:21:22;8.75;;;4.47;;
69981;SDS011;57319;56.274;43.980;2022-09-13T04:23:48;7.38;;;3.90;;
69981;SDS011;57319;56.274;43.980;2022-09-13T04:26:14;5.90;;;4.88;;
69981;SDS011;57319;56.274;43.980;2022-09-13T04:28:40;9.13;;;4.85;;
69981;SDS011;57319;56.274;43.980;2022-09-13T04:31:05;4.40;;;3.83;;
69981;SDS011;57319;56.274;43.980;2022-09-13T04:33:31;6.63;;;4.30;;
69981;SDS011;57319;56.274;43.980;2022-09-13T04:35:57;5.10;;;4.63;;
69981;SDS011;57319;56.274;43.980;2022-09-13T04:38:23;7.70;;;4.35;;
69981;SDS011;57319;56.274;43.980;2022-09-13T04:40:53;5.60;;;5.10;;
69981;SDS011;57319;56.274;43.980;2022-09-13T04:43:19;8.57;;;4.28;;
69981;SDS011;57319;56.274;43.980;2022-09-13T04:45:45;10.95;;;4.65;;
69981;SDS011;57319;56.274;43.980;2022-09-13T04:48:11;12.57;;;4.57;;
69981;SDS011;57319;56.274;43.980;2022-09-13T04:50:37;6.03;;;5.43;;
69981;SDS011;57319;56.274;43.980;2022-09-13T04:53:02;11.43;;;5.15;;
69981;SDS011;57319;56.274;43.980;2022-09-13T04:55:28;8.48;;;5.05;;
69981;SDS011;57319;56.274;43.980;2022-09-13T04:57:54;5.10;;;4.70;;
69981;SDS011;57319;56.274;43.980;2022-09-13T05:00:20;5.57;;;5.00;;
69981;SDS011;57319;56.274;43.980;2022-09-13T05:02:46;6.35;;;4.93;;
69981;SDS011;57319;56.274;43.980;2022-09-13T05:05:12;8.90;;;5.18;;
69981;SDS011;57319;56.274;43.980;2022-09-13T05:07:38;5.25;;;4.80;;
69981;SDS011;57319;56.274;43.980;2022-09-13T05:10:03;9.35;;;4.63;;
69981;SDS011;57319;56.274;43.980;2022-09-13T05:12:29;7.05;;;4.43;;
69981;SDS011;57319;56.274;43.980;2022-09-13T05:14:55;10.27;;;5.13;;
69981;SDS011;57319;56.274;43.980;2022-09-13T05:17:21;11.48;;;4.60;;
69981;SDS011;57319;56.274;43.980;2022-09-13T05:19:46;21.92;;;5.32;;
69981;SDS011;57319;56.274;43.980;2022-09-13T05:22:13;15.60;;;4.60;;
69981;SDS011;57319;56.274;43.980;2022-09-13T05:24:39;9.02;;;5.10;;
69981;SDS011;57319;56.274;43.980;2022-09-13T05:27:04;34.50;;;5.35;;
69981;SDS011;57319;56.274;43.980;2022-09-13T05:29:30;32.72;;;5.68;;
69981;SDS011;57319;56.274;43.980;2022-09-13T05:31:55;29.55;;;5.82;;
69981;SDS011;57319;56.274;43.980;2022-09-13T05:34:21;11.18;;;3.95;;
69981;SDS011;57319;56.274;43.980;2022-09-13T05:36:47;5.20;;;4.47;;
69981;SDS011;57319;56.274;43.980;2022-09-13T05:39:15;21.77;;;4.78;;
69981;SDS011;57319;56.274;43.980;2022-09-13T05:41:46;6.55;;;4.13;;
69981;SDS011;57319;56.274;43.980;2022-09-13T05:44:12;8.15;;;3.88;;
69981;SDS011;57319;56.274;43.980;2022-09-13T05:46:41;6.15;;;4.40;;
69981;SDS011;57319;56.274;43.980;2022-09-13T05:49:07;12.05;;;4.30;;
69981;SDS011;57319;56.274;43.980;2022-09-13T05:51:33;13.82;;;4.05;;
69981;SDS011;57319;56.274;43.980;2022-09-13T05:53:58;5.65;;;4.00;;
69981;SDS011;57319;56.274;43.980;2022-09-13T05:56:25;12.25;;;4.53;;
69981;SDS011;57319;56.274;43.980;2022-09-13T05:58:52;4.88;;;3.72;;
69981;SDS011;57319;56.274;43.980;2022-09-13T06:01:20;6.50;;;4.38;;
69981;SDS011;57319;56.274;43.980;2022-09-13T06:03:48;10.27;;;3.78;;
69981;SDS011;57319;56.274;43.980;2022-09-13T06:06:14;21.00;;;4.00;;
69981;SDS011;57319;56.274;43.980;2022-09-13T06:08:41;5.65;;;3.60;;
69981;SDS011;57319;56.274;43.980;2022-09-13T06:11:07;6.63;;;3.30;;
69981;SDS011;57319;56.274;43.980;2022-09-13T06:13:35;11.55;;;3.80;;
69981;SDS011;57319;56.274;43.980;2022-09-13T06:16:03;4.72;;;3.13;;
69981;SDS011;57319;56.274;43.980;2022-09-13T06:18:32;9.43;;;3.47;;
69981;SDS011;57319;56.274;43.980;2022-09-13T06:21:00;4.78;;;3.28;;
69981;SDS011;57319;56.274;43.980;2022-09-13T06:23:30;10.32;;;3.55;;
69981;SDS011;57319;56.274;43.980;2022-09-13T06:26:03;15.18;;;3.88;;
69981;SDS011;57319;56.274;43.980;2022-09-13T06:28:30;5.45;;;3.53;;
69981;SDS011;57319;56.274;43.980;2022-09-13T06:31:18;11.85;;;3.33;;
69981;SDS011;57319;56.274;43.980;2022-09-13T06:33:43;5.07;;;3.15;;
69981;SDS011;57319;56.274;43.980;2022-09-13T06:36:13;3.35;;;3.25;;
69981;SDS011;57319;56.274;43.980;2022-09-13T06:38:42;3.95;;;3.10;;
69981;SDS011;57319;56.274;43.980;2022-09-13T06:41:12;3.45;;;3.15;;
69981;SDS011;57319;56.274;43.980;2022-09-13T06:43:39;4.80;;;3.28;;
69981;SDS011;57319;56.274;43.980;2022-09-13T06:46:09;3.63;;;3.17;;
69981;SDS011;57319;56.274;43.980;2022-09-13T06:48:37;5.18;;;3.28;;
69981;SDS011;57319;56.274;43.980;2022-09-13T06:51:05;3.65;;;3.35;;
69981;SDS011;57319;56.274;43.980;2022-09-13T06:53:33;6.97;;;3.08;;
69981;SDS011;57319;56.274;43.980;2022-09-13T06:56:01;10.98;;;3.00;;
69981;SDS011;57319;56.274;43.980;2022-09-13T06:58:29;3.70;;;3.13;;
69981;SDS011;57319;56.274;43.980;2022-09-13T07:03:39;3.75;;;2.70;;
69981;SDS011;57319;56.274;43.980;2022-09-13T07:08:42;2.40;;;2.30;;
69981;SDS011;57319;56.274;43.980;2022-09-13T07:11:09;2.58;;;1.80;;
69981;SDS011;57319;56.274;43.980;2022-09-13T07:13:35;3.22;;;1.90;;
69981;SDS011;57319;56.274;43.980;2022-09-13T07:16:02;3.20;;;1.83;;
69981;SDS011;57319;56.274;43.980;2022-09-13T07:18:29;5.93;;;2.20;;
69981;SDS011;57319;56.274;43.980;2022-09-13T07:20:59;3.25;;;1.98;;
69981;SDS011;57319;56.274;43.980;2022-09-13T07:23:26;2.40;;;2.30;;
69981;SDS011;57319;56.274;43.980;2022-09-13T07:25:52;2.20;;;2.10;;
69981;SDS011;57319;56.274;43.980;2022-09-13T07:28:19;2.85;;;2.33;;
69981;SDS011;57319;56.274;43.980;2022-09-13T07:30:45;3.20;;;2.00;;
69981;SDS011;57319;56.274;43.980;2022-09-13T07:33:10;2.72;;;2.53;;
69981;SDS011;57319;56.274;43.980;2022-09-13T07:35:36;2.92;;;2.60;;
69981;SDS011;57319;56.274;43.980;2022-09-13T07:38:02;9.63;;;2.53;;
69981;SDS011;57319;56.274;43.980;2022-09-13T07:40:28;5.43;;;2.50;;
69981;SDS011;57319;56.274;43.980;2022-09-13T07:42:53;8.18;;;2.30;;
69981;SDS011;57319;56.274;43.980;2022-09-13T07:45:19;4.63;;;2.60;;
69981;SDS011;57319;56.274;43.980;2022-09-13T07:47:46;3.95;;;2.30;;
69981;SDS011;57319;56.274;43.980;2022-09-13T07:50:11;2.30;;;2.20;;
69981;SDS011;57319;56.274;43.980;2022-09-13T07:52:37;10.82;;;2.30;;
69981;SDS011;57319;56.274;43.980;2022-09-13T07:55:03;5.97;;;2.67;;
69981;SDS011;57319;56.274;43.980;2022-09-13T07:57:30;9.30;;;3.25;;
69981;SDS011;57319;56.274;43.980;2022-09-13T07:59:55;8.45;;;3.30;;
69981;SDS011;57319;56.274;43.980;2022-09-13T08:02:21;4.60;;;3.60;;
69981;SDS011;57319;56.274;43.980;2022-09-13T08:04:47;5.75;;;3.30;;
69981;SDS011;57319;56.274;43.980;2022-09-13T08:07:12;2.88;;;2.67;;
69981;SDS011;57319;56.274;43.980;2022-09-13T08:09:38;2.85;;;2.60;;
69981;SDS011;57319;56.274;43.980;2022-09-13T08:12:04;9.43;;;2.95;;
69981;SDS011;57319;56.274;43.980;2022-09-13T08:14:30;2.90;;;2.72;;
69981;SDS011;57319;56.274;43.980;2022-09-13T08:16:55;4.68;;;2.47;;
69981;SDS011;57319;56.274;43.980;2022-09-13T08:19:21;7.03;;;2.95;;
69981;SDS011;57319;56.274;43.980;2022-09-13T08:21:46;5.60;;;2.88;;
69981;SDS011;57319;56.274;43.980;2022-09-13T08:24:14;3.88;;;2.67;;
69981;SDS011;57319;56.274;43.980;2022-09-13T08:26:41;8.43;;;2.42;;
69981;SDS011;57319;56.274;43.980;2022-09-13T08:29:07;6.03;;;2.08;;
69981;SDS011;57319;56.274;43.980;2022-09-13T08:31:33;2.47;;;2.10;;
69981;SDS011;57319;56.274;43.980;2022-09-13T08:33:59;5.68;;;2.63;;
69981;SDS011;57319;56.274;43.980;2022-09-13T08:36:26;4.53;;;3.35;;
69981;SDS011;57319;56.274;43.980;2022-09-13T08:38:53;4.50;;;3.63;;
69981;SDS011;57319;56.274;43.980;2022-09-13T08:47:40;2.95;;;2.78;;
69981;SDS011;57319;56.274;43.980;2022-09-13T08:50:20;2.33;;;2.13;;
69981;SDS011;57319;56.274;43.980;2022-09-13T08:55:37;2.80;;;2.38;;
69981;SDS011;57319;56.274;43.980;2022-09-13T08:58:21;8.45;;;2.50;;
69981;SDS011;57319;56.274;43.980;2022-09-13T09:00:53;4.15;;;2.35;;
69981;SDS011;57319;56.274;43.980;2022-09-13T09:06:24;3.95;;;2.72;;
69981;SDS011;57319;56.274;43.980;2022-09-13T09:08:56;2.92;;;2.22;;
69981;SDS011;57319;56.274;43.980;2022-09-13T09:19:05;9.73;;;2.45;;
69981;SDS011;57319;56.274;43.980;2022-09-13T09:21:38;4.97;;;1.88;;
69981;SDS011;57319;56.274;43.980;2022-09-13T09:24:05;5.47;;;2.20;;
69981;SDS011;57319;56.274;43.980;2022-09-13T09:26:40;2.22;;;2.13;;
69981;SDS011;57319;56.274;43.980;2022-09-13T09:29:15;2.10;;;2.00;;
69981;SDS011;57319;56.274;43.980;2022-09-13T09:34:29;6.30;;;2.20;;
69981;SDS011;57319;56.274;43.980;2022-09-13T09:39:45;6.43;;;2.60;;
69981;SDS011;57319;56.274;43.980;2022-09-13T09:42:58;2.35;;;2.15;;
69981;SDS011;57319;56.274;43.980;2022-09-13T09:47:55;3.83;;;1.97;;
69981;SDS011;57319;56.274;43.980;2022-09-13T09:50:27;3.65;;;2.28;;
69981;SDS011;57319;56.274;43.980;2022-09-13T09:55:44;2.30;;;2.20;;
69981;SDS011;57319;56.274;43.980;2022-09-13T09:58:13;4.00;;;2.15;;
69981;SDS011;57319;56.274;43.980;2022-09-13T10:00:51;2.17;;;2.08;;
69981;SDS011;57319;56.274;43.980;2022-09-13T10:03:20;2.15;;;2.15;;
69981;SDS011;57319;56.274;43.980;2022-09-13T10:06:02;16.52;;;2.50;;
69981;SDS011;57319;56.274;43.980;2022-09-13T10:08:57;2.63;;;2.20;;
69981;SDS011;57319;56.274;43.980;2022-09-13T10:17:01;2.30;;;2.20;;
69981;SDS011;57319;56.274;43.980;2022-09-13T10:22:30;2.30;;;2.10;;
69981;SDS011;57319;56.274;43.980;2022-09-13T10:25:13;1.90;;;1.90;;
69981;SDS011;57319;56.274;43.980;2022-09-13T10:27:49;2.55;;;2.40;;
69981;SDS011;57319;56.274;43.980;2022-09-13T10:30:32;2.60;;;2.17;;
69981;SDS011;57319;56.274;43.980;2022-09-13T10:33:02;2.38;;;2.28;;
69981;SDS011;57319;56.274;43.980;2022-09-13T10:35:29;4.15;;;2.72;;
69981;SDS011;57319;56.274;43.980;2022-09-13T10:37:55;2.60;;;2.42;;
69981;SDS011;57319;56.274;43.980;2022-09-13T10:40:24;2.70;;;2.22;;
69981;SDS011;57319;56.274;43.980;2022-09-13T10:42:55;6.00;;;2.50;;
69981;SDS011;57319;56.274;43.980;2022-09-13T10:45:23;3.08;;;2.83;;
69981;SDS011;57319;56.274;43.980;2022-09-13T10:47:52;8.98;;;2.50;;
69981;SDS011;57319;56.274;43.980;2022-09-13T10:50:27;15.77;;;2.80;;
69981;SDS011;57319;56.274;43.980;2022-09-13T10:53:00;2.58;;;2.40;;
69981;SDS011;57319;56.274;43.980;2022-09-13T11:00:38;8.38;;;2.85;;
69981;SDS011;57319;56.274;43.980;2022-09-13T11:03:29;2.55;;;2.35;;
69981;SDS011;57319;56.274;43.980;2022-09-13T11:09:22;5.45;;;2.50;;
69981;SDS011;57319;56.274;43.980;2022-09-13T11:14:56;5.18;;;3.45;;
69981;SDS011;57319;56.274;43.980;2022-09-13T11:37:01;5.30;;;3.88;;
69981;SDS011;57319;56.274;43.980;2022-09-13T11:46:21;6.75;;;2.63;;
69981;SDS011;57319;56.274;43.980;2022-09-13T11:48:57;12.35;;;2.75;;
69981;SDS011;57319;56.274;43.980;2022-09-13T11:57:10;1.88;;;1.88;;
69981;SDS011;57319;56.274;43.980;2022-09-13T11:59:44;2.22;;;2.13;;
69981;SDS011;57319;56.274;43.980;2022-09-13T12:05:10;15.68;;;5.70;;
69981;SDS011;57319;56.274;43.980;2022-09-13T12:07:43;10.88;;;2.53;;
69981;SDS011;57319;56.274;43.980;2022-09-13T12:10:18;3.97;;;2.35;;
69981;SDS011;57319;56.274;43.980;2022-09-13T12:12:56;7.80;;;3.65;;
69981;SDS011;57319;56.274;43.980;2022-09-13T12:18:13;2.30;;;2.10;;
69981;SDS011;57319;56.274;43.980;2022-09-13T12:20:47;3.35;;;2.95;;
69981;SDS011;57319;56.274;43.980;2022-09-13T12:23:23;2.08;;;1.98;;
69981;SDS011;57319;56.274;43.980;2022-09-13T12:28:34;4.53;;;3.00;;
69981;SDS011;57319;56.274;43.980;2022-09-13T12:31:10;3.28;;;3.08;;
69981;SDS011;57319;56.274;43.980;2022-09-13T12:33:37;2.33;;;2.20;;
69981;SDS011;57319;56.274;43.980;2022-09-13T12:41:39;6.93;;;3.05;;
69981;SDS011;57319;56.274;43.980;2022-09-13T12:44:30;5.85;;;2.30;;
69981;SDS011;57319;56.274;43.980;2022-09-13T12:47:10;3.08;;;2.10;;
69981;SDS011;57319;56.274;43.980;2022-09-13T12:52:56;3.80;;;2.28;;
69981;SDS011;57319;56.274;43.980;2022-09-13T13:04:07;4.40;;;3.38;;
69981;SDS011;57319;56.274;43.980;2022-09-13T13:06:40;6.88;;;2.33;;
69981;SDS011;57319;56.274;43.980;2022-09-13T13:12:05;3.00;;;2.58;;
69981;SDS011;57319;56.274;43.980;2022-09-13T13:23:32;6.82;;;2.92;;
69981;SDS011;57319;56.274;43.980;2022-09-13T13:26:04;2.55;;;2.45;;
69981;SDS011;57319;56.274;43.980;2022-09-13T13:38:53;9.40;;;2.38;;
69981;SDS011;57319;56.274;43.980;2022-09-13T13:43:58;2.50;;;2.38;;
69981;SDS011;57319;56.274;43.980;2022-09-13T13:46:28;9.40;;;2.70;;
69981;SDS011;57319;56.274;43.980;2022-09-13T13:49:39;15.68;;;2.63;;
69981;SDS011;57319;56.274;43.980;2022-09-13T13:52:33;13.45;;;2.95;;
69981;SDS011;57319;56.274;43.980;2022-09-13T13:55:02;5.72;;;2.78;;
69981;SDS011;57319;56.274;43.980;2022-09-13T13:58:11;11.15;;;3.25;;
69981;SDS011;57319;56.274;43.980;2022-09-13T14:01:00;3.42;;;3.05;;
69981;SDS011;57319;56.274;43.980;2022-09-13T14:03:30;8.48;;;2.72;;
69981;SDS011;57319;56.274;43.980;2022-09-13T14:09:21;4.13;;;2.70;;
69981;SDS011;57319;56.274;43.980;2022-09-13T14:20:12;3.25;;;3.05;;
69981;SDS011;57319;56.274;43.980;2022-09-13T14:22:41;9.13;;;2.50;;
69981;SDS011;57319;56.274;43.980;2022-09-13T14:27:47;7.47;;;2.90;;
69981;SDS011;57319;56.274;43.980;2022-09-13T14:32:42;3.47;;;2.75;;
69981;SDS011;57319;56.274;43.980;2022-09-13T14:40:50;4.40;;;2.33;;
69981;SDS011;57319;56.274;43.980;2022-09-13T14:43:32;9.07;;;3.45;;
69981;SDS011;57319;56.274;43.980;2022-09-13T14:48:46;6.60;;;2.90;;
69981;SDS011;57319;56.274;43.980;2022-09-13T14:51:26;3.83;;;2.85;;
69981;SDS011;57319;56.274;43.980;2022-09-13T14:53:56;4.95;;;3.38;;
69981;SDS011;57319;56.274;43.980;2022-09-13T14:56:34;10.63;;;3.80;;
69981;SDS011;57319;56.274;43.980;2022-09-13T14:59:10;6.00;;;3.50;;
69981;SDS011;57319;56.274;43.980;2022-09-13T15:01:43;7.38;;;3.00;;
69981;SDS011;57319;56.274;43.980;2022-09-13T15:04:09;11.02;;;3.13;;
69981;SDS011;57319;56.274;43.980;2022-09-13T15:06:36;5.32;;;2.47;;
69981;SDS011;57319;56.274;43.980;2022-09-13T15:11:36;9.32;;;3.88;;
69981;SDS011;57319;56.274;43.980;2022-09-13T15:14:15;10.43;;;3.05;;
69981;SDS011;57319;56.274;43.980;2022-09-13T15:19:15;8.25;;;5.30;;
69981;SDS011;57319;56.274;43.980;2022-09-13T15:21:51;5.95;;;3.60;;
69981;SDS011;57319;56.274;43.980;2022-09-13T15:24:30;5.25;;;3.60;;
69981;SDS011;57319;56.274;43.980;2022-09-13T15:27:05;3.05;;;2.95;;
69981;SDS011;57319;56.274;43.980;2022-09-13T15:29:32;6.10;;;3.85;;
69981;SDS011;57319;56.274;43.980;2022-09-13T15:32:02;4.95;;;3.90;;
69981;SDS011;57319;56.274;43.980;2022-09-13T15:34:28;6.60;;;4.80;;
69981;SDS011;57319;56.274;43.980;2022-09-13T15:39:26;4.03;;;3.63;;
69981;SDS011;57319;56.274;43.980;2022-09-13T15:41:53;4.20;;;3.30;;
69981;SDS011;57319;56.274;43.980;2022-09-13T15:44:20;3.90;;;3.35;;
69981;SDS011;57319;56.274;43.980;2022-09-13T15:46:48;2.92;;;2.83;;
69981;SDS011;57319;56.274;43.980;2022-09-13T15:49:22;4.32;;;3.38;;
69981;SDS011;57319;56.274;43.980;2022-09-13T15:51:55;7.50;;;3.28;;
69981;SDS011;57319;56.274;43.980;2022-09-13T15:54:22;4.65;;;3.67;;
69981;SDS011;57319;56.274;43.980;2022-09-13T15:56:55;6.15;;;3.75;;
69981;SDS011;57319;56.274;43.980;2022-09-13T15:59:20;7.57;;;3.30;;
69981;SDS011;57319;56.274;43.980;2022-09-13T16:01:47;3.65;;;3.33;;
69981;SDS011;57319;56.274;43.980;2022-09-13T16:04:13;4.95;;;3.53;;
69981;SDS011;57319;56.274;43.980;2022-09-13T16:06:39;5.25;;;3.38;;
69981;SDS011;57319;56.274;43.980;2022-09-13T16:09:27;11.65;;;4.05;;
69981;SDS011;57319;56.274;43.980;2022-09-13T16:11:52;3.45;;;3.17;;
69981;SDS011;57319;56.274;43.980;2022-09-13T16:14:18;12.45;;;3.45;;
69981;SDS011;57319;56.274;43.980;2022-09-13T16:16:44;2.80;;;2.70;;
69981;SDS011;57319;56.274;43.980;2022-09-13T16:19:18;4.05;;;2.70;;
69981;SDS011;57319;56.274;43.980;2022-09-13T16:21:44;3.25;;;3.03;;
69981;SDS011;57319;56.274;43.980;2022-09-13T16:24:11;9.23;;;3.30;;
69981;SDS011;57319;56.274;43.980;2022-09-13T16:26:37;7.35;;;3.38;;
69981;SDS011;57319;56.274;43.980;2022-09-13T16:29:04;4.93;;;3.05;;
69981;SDS011;57319;56.274;43.980;2022-09-13T16:31:30;12.57;;;3.42;;
69981;SDS011;57319;56.274;43.980;2022-09-13T16:33:55;4.35;;;3.42;;
69981;SDS011;57319;56.274;43.980;2022-09-13T16:36:21;11.02;;;3.05;;
69981;SDS011;57319;56.274;43.980;2022-09-13T16:38:47;3.75;;;3.55;;
69981;SDS011;57319;56.274;43.980;2022-09-13T16:41:12;4.55;;;3.20;;
69981;SDS011;57319;56.274;43.980;2022-09-13T16:43:38;9.30;;;3.92;;
69981;SDS011;57319;56.274;43.980;2022-09-13T16:46:07;3.63;;;3.33;;
69981;SDS011;57319;56.274;43.980;2022-09-13T16:48:34;6.60;;;3.88;;
69981;SDS011;57319;56.274;43.980;2022-09-13T16:51:07;3.63;;;3.35;;
69981;SDS011;57319;56.274;43.980;2022-09-13T16:53:35;3.47;;;3.10;;
69981;SDS011;57319;56.274;43.980;2022-09-13T16:56:13;8.75;;;3.00;;
69981;SDS011;57319;56.274;43.980;2022-09-13T16:58:40;8.02;;;3.50;;
69981;SDS011;57319;56.274;43.980;2022-09-13T17:01:10;5.05;;;2.80;;
69981;SDS011;57319;56.274;43.980;2022-09-13T17:03:37;6.13;;;2.97;;
69981;SDS011;57319;56.274;43.980;2022-09-13T17:06:05;3.20;;;2.67;;
69981;SDS011;57319;56.274;43.980;2022-09-13T17:08:33;3.85;;;3.30;;
69981;SDS011;57319;56.274;43.980;2022-09-13T17:11:04;6.43;;;3.28;;
69981;SDS011;57319;56.274;43.980;2022-09-13T17:13:34;6.63;;;3.53;;
69981;SDS011;57319;56.274;43.980;2022-09-13T17:16:04;6.45;;;3.47;;
69981;SDS011;57319;56.274;43.980;2022-09-13T17:18:32;6.90;;;3.40;;
69981;SDS011;57319;56.274;43.980;2022-09-13T17:20:58;8.15;;;3.42;;
69981;SDS011;57319;56.274;43.980;2022-09-13T17:23:24;7.35;;;3.25;;
69981;SDS011;57319;56.274;43.980;2022-09-13T17:25:50;3.70;;;3.40;;
69981;SDS011;57319;56.274;43.980;2022-09-13T17:28:16;5.05;;;3.60;;
69981;SDS011;57319;56.274;43.980;2022-09-13T17:30:44;6.95;;;3.95;;
69981;SDS011;57319;56.274;43.980;2022-09-13T17:33:10;3.55;;;3.25;;
69981;SDS011;57319;56.274;43.980;2022-09-13T17:35:36;8.40;;;3.53;;
69981;SDS011;57319;56.274;43.980;2022-09-13T17:38:02;3.78;;;3.58;;
69981;SDS011;57319;56.274;43.980;2022-09-13T17:40:29;5.13;;;3.03;;
69981;SDS011;57319;56.274;43.980;2022-09-13T17:42:55;6.00;;;3.40;;
69981;SDS011;57319;56.274;43.980;2022-09-13T17:45:21;9.02;;;3.35;;
69981;SDS011;57319;56.274;43.980;2022-09-13T17:47:47;7.50;;;5.43;;
69981;SDS011;57319;56.274;43.980;2022-09-13T17:50:13;15.68;;;3.90;;
69981;SDS011;57319;56.274;43.980;2022-09-13T17:52:39;3.95;;;3.65;;
69981;SDS011;57319;56.274;43.980;2022-09-13T17:55:05;4.72;;;4.32;;
69981;SDS011;57319;56.274;43.980;2022-09-13T17:57:31;12.40;;;3.92;;
69981;SDS011;57319;56.274;43.980;2022-09-13T17:59:57;6.38;;;4.10;;
69981;SDS011;57319;56.274;43.980;2022-09-13T18:02:23;6.07;;;4.32;;
69981;SDS011;57319;56.274;43.980;2022-09-13T18:04:51;6.35;;;3.97;;
69981;SDS011;57319;56.274;43.980;2022-09-13T18:07:17;8.80;;;4.00;;
69981;SDS011;57319;56.274;43.980;2022-09-13T18:09:43;7.75;;;4.28;;
69981;SDS011;57319;56.274;43.980;2022-09-13T18:12:09;4.50;;;4.10;;
69981;SDS011;57319;56.274;43.980;2022-09-13T18:14:36;4.65;;;4.28;;
69981;SDS011;57319;56.274;43.980;2022-09-13T18:17:02;5.88;;;5.20;;
69981;SDS011;57319;56.274;43.980;2022-09-13T18:19:34;13.23;;;6.32;;
69981;SDS011;57319;56.274;43.980;2022-09-13T18:22:00;8.93;;;5.00;;
69981;SDS011;57319;56.274;43.980;2022-09-13T18:24:26;8.70;;;6.60;;
69981;SDS011;57319;56.274;43.980;2022-09-13T18:26:52;6.10;;;5.60;;
69981;SDS011;57319;56.274;43.980;2022-09-13T18:29:18;12.10;;;5.85;;
69981;SDS011;57319;56.274;43.980;2022-09-13T18:31:43;5.70;;;5.10;;
69981;SDS011;57319;56.274;43.980;2022-09-13T18:34:12;5.43;;;5.03;;
69981;SDS011;57319;56.274;43.980;2022-09-13T18:36:39;5.28;;;4.70;;
69981;SDS011;57319;56.274;43.980;2022-09-13T18:39:06;12.65;;;6.50;;
69981;SDS011;57319;56.274;43.980;2022-09-13T18:41:36;9.25;;;6.35;;
69981;SDS011;57319;56.274;43.980;2022-09-13T18:44:07;7.20;;;5.70;;
69981;SDS011;57319;56.274;43.980;2022-09-13T18:46:34;12.52;;;7.22;;
69981;SDS011;57319;56.274;43.980;2022-09-13T18:49:01;14.20;;;9.73;;